This is the latest recevied weather packets stored in our database for station/object F4GQK-13. If no packets are shown the sender has not sent any weather packets the latest 1 day(s).
| Time | Temp. | Humidity | Pressure | Rain* | Wind** | Luminosity | Snow |
|---|---|---|---|---|---|---|---|
| 1778110206 | 10.56° C | 93% | 1014.3 hPa | 0 mm | - | 0 W/m² | - |
| 1778107205 | 10.56° C | 94% | 1014.2 hPa | 5.33 mm | - | 0 W/m² | - |
| 1778106605 | 10.56° C | 94% | 1014.3 hPa | 5.33 mm | - | 0 W/m² | - |
| 1778106305 | 10.56° C | 94% | 1014.4 hPa | 5.33 mm | - | 0 W/m² | - |
| 1778105105 | 10.56° C | 93% | 1014.2 hPa | 5.33 mm | - | 0 W/m² | - |
| 1778103905 | 10.56° C | 92% | 1013.9 hPa | 0 mm | - | 0 W/m² | - |
| 1778103005 | 10.56° C | 92% | 1014.1 hPa | 0 mm | - | 0 W/m² | - |
| 1778100605 | 10.56° C | 91% | 1013.8 hPa | 0 mm | - | 0 W/m² | - |
| 1778100006 | 10.56° C | 91% | 1013.7 hPa | 0 mm | - | 0 W/m² | - |
| 1778099405 | 10.56° C | 91% | 1013.8 hPa | 0 mm | - | 0 W/m² | - |
| 1778098805 | 10.56° C | 90% | 1013.6 hPa | 0 mm | - | 0 W/m² | - |
| 1778098506 | 10.56° C | 90% | 1013.7 hPa | 0 mm | - | 0 W/m² | - |
| 1778097605 | 11.11° C | 90% | 1013.6 hPa | 0 mm | - | 0 W/m² | - |
| 1778096105 | 11.11° C | 90% | 1013.2 hPa | 0 mm | - | 0 W/m² | - |
| 1778095804 | 11.11° C | 89% | 1013.1 hPa | 0 mm | - | 0 W/m² | - |
| 1778094305 | 11.11° C | 88% | 1012.8 hPa | 0 mm | - | 0 W/m² | - |
| 1778091305 | 12.22° C | 84% | 1012.2 hPa | 0 mm | - | 19 W/m² | - |
| 1778091005 | 12.22° C | 84% | 1012.1 hPa | 0 mm | - | 21 W/m² | - |
| 1778088305 | 12.78° C | 79% | 1011.4 hPa | 0 mm | - | 42 W/m² | - |
| 1778087704 | 13.33° C | 77% | 1011.4 hPa | 0 mm | - | 58 W/m² | - |
| 1778085605 | 14.44° C | 74% | 1011.5 hPa | 0 mm | - | 355 W/m² | - |
| 1778083205 | 13.89° C | 73% | 1011.3 hPa | 0 mm | - | 292 W/m² | - |
| 1778082605 | 13.89° C | 74% | 1011.3 hPa | 0 mm | - | 336 W/m² | - |
| 1778081706 | 14.44° C | 75% | 1011.2 hPa | 0 mm | - | 344 W/m² | - |
| 1778080805 | 14.44° C | 74% | 1011.2 hPa | 0 mm | - | 254 W/m² | - |
* Rain latest hour (hover to see other rain measurements)
** Current wind speed in m/s (hover to see current wind gust speed)